Latest Weather Observations for Territory Grape Farm

IDD60801

Issued at 4:02 pm CST Saturday 25 April 2015 (issued every 30 minutes, with the page automatically refreshed every 10 minutes)

About weather observations | Map of weather stations | Latest weather observations for NT | Other Formats
Station Details ID: 015643 Name: TERRITORY GRAPE FARM Lat: -22.45 Lon: 133.64 Height: 565.6 m
Data from the previous 72 hours. | See also: Recent months at Territory Grape Farm
Date/Time
CST
Temp
°C
App
Temp
°C
Dew
Point
Rel
Hum
%
Delta-T
°C
Wind Press
QNH
hPa
Press
MSL
hPa
Rain
since 9 am
mm
Dir
 
Spd
km/h
Gust
km/h
Spd
kts
Gust
kts
25/04:00pm 22.7 16.9 2.2 26 9.9 - 22 26 12 14 1018.3 - -
25/03:30pm 22.9 18.4 2.4 26 10.0 - 15 22 8 12 1018.3 1015.4 -
25/03:00pm 22.9 - 2.4 26 10.0 - - - - - 1018.3 1015.4 0.0
25/02:30pm 22.9 - 2.4 26 10.0 - - - - - 1018.4 1015.5 -
25/02:00pm 22.6 - 3.7 29 9.4 - - - - - 1018.9 - -
25/01:30pm 22.2 - 4.3 31 9.0 - - - - - 1019.4 1016.6 -
25/01:00pm 21.8 - 4.4 32 8.7 - - - - - 1019.8 - -
25/12:30pm 20.9 - 4.0 33 8.4 - - - - - 1020.2 1017.3 -
25/12:00pm 20.5 - 4.1 34 8.1 - - - - - 1020.8 1018.0 -
25/11:30am 20.2 15.9 5.1 37 7.6 - 17 19 9 10 1021.3 1018.5 -
25/11:00am 19.0 - 4.7 39 7.1 - - - - - 1021.8 - -
25/10:30am 18.7 13.8 5.2 41 6.7 - 20 30 11 16 1022.2 1019.4 -
25/10:00am 17.6 - 4.9 43 6.3 - - - - - 1022.4 - -
25/09:30am 17.2 - 4.9 44 6.0 - - - - - 1022.2 1019.4 -
25/09:00am 16.3 - 5.0 47 5.5 - - - - - 1022.0 1019.1 0.0
25/08:30am 15.6 10.7 4.9 49 5.2 - 20 24 11 13 1021.5 1018.7 -
25/08:00am 14.7 10.5 5.5 54 4.5 - 17 20 9 11 1021.1 - -
25/07:30am 13.0 10.0 5.9 62 3.4 - 11 13 6 7 1020.7 1017.9 -
25/07:00am 11.4 - 5.5 67 2.8 - - - - - 1020.1 - -
25/06:30am 11.8 - 5.4 65 3.0 - - - - - 1019.6 1016.8 -
25/06:00am 12.3 9.5 5.0 61 3.5 - 9 9 5 5 1019.2 1016.4 -
25/05:30am 13.3 - 5.0 57 4.0 - - - - - 1018.9 1016.1 -
25/05:00am 13.6 - 4.7 55 4.2 - - - - - 1018.7 - -
25/04:30am 14.1 - 4.7 53 4.5 - - - - - 1018.5 1015.6 -
25/04:00am 13.4 - 4.3 54 4.3 - - - - - 1018.2 - -
25/03:30am 13.1 - 4.3 55 4.1 - - - - - 1018.0 1015.2 -
25/03:00am 13.3 - 3.9 53 4.4 - - - - - 1017.7 1014.9 0.0
25/02:30am 13.9 - 3.9 51 4.7 - - - - - 1017.7 1014.9 -
25/02:00am 13.7 - 4.0 52 4.6 - - - - - 1017.9 - -
25/01:30am 13.9 - 4.2 52 4.6 - - - - - 1018.0 1015.2 -
25/01:00am 12.6 10.1 3.8 55 4.1 - 6 7 3 4 1018.2 - -
25/12:30am 14.4 - 3.8 49 5.0 - - - - - 1018.0 1015.2 -
25/12:00am 14.8 12.1 3.9 48 5.1 - 7 9 4 5 1018.2 1015.3 -
 
Date/Time
CST
Temp
°C
App
Temp
°C
Dew
Point
Rel
Hum
%
Delta-T
°C
Wind Press
QNH
hPa
Press
MSL
hPa
Rain
since 9 am
mm
Dir
 
Spd
km/h
Gust
km/h
Spd
kts
Gust
kts
24/11:30pm 15.0 - 3.8 47 5.3 - - - - - 1018.0 1015.2 -
24/11:00pm 15.7 - 3.8 45 5.7 - - - - - 1018.2 - -
24/10:30pm 16.1 - 4.2 45 5.7 - - - - - 1018.0 1015.2 -
24/10:00pm 16.2 - 4.6 46 5.6 - - - - - 1017.9 - -
24/09:30pm 17.2 - 4.2 42 6.3 - - - - - 1017.8 1015.0 -
24/09:00pm 17.7 15.0 3.9 40 6.7 - 7 7 4 4 1017.6 1014.8 0.0
24/08:30pm 18.8 - 3.8 37 7.3 - - - - - 1017.4 1014.6 -
24/08:00pm 19.4 - 3.6 35 7.7 - - - - - 1017.0 - -
24/07:30pm 20.9 - 3.6 32 8.5 - - - - - 1016.5 1013.6 -
24/07:00pm 21.0 17.8 3.2 31 8.7 - 9 11 5 6 1015.9 - -
24/06:30pm 23.1 - 2.6 26 10.0 - - - - - 1015.6 1012.7 -
24/06:00pm 24.4 21.1 2.5 24 10.8 - 9 11 5 6 1015.2 1012.3 -
24/05:30pm 25.4 - 2.2 22 11.5 - - - - - 1014.9 1012.0 -
24/05:00pm 26.2 - 2.2 21 11.9 - - - - - 1014.7 - -
24/04:30pm 26.5 - 1.7 20 12.2 - - - - - 1014.4 1011.5 -
24/04:00pm 26.6 - 1.8 20 12.3 - - - - - 1014.4 - -
24/03:30pm 27.2 - 3.0 21 12.3 - - - - - 1014.5 1011.6 -
24/03:00pm 26.3 - 2.3 21 12.0 - - - - - 1014.5 1011.6 0.0
24/02:30pm 26.7 - 2.6 21 12.1 - - - - - 1014.6 1011.7 -
24/02:00pm 26.5 - 1.7 20 12.2 - - - - - 1014.8 - -
24/01:30pm 26.3 - 2.3 21 12.0 - - - - - 1015.3 1012.4 -
24/01:00pm 25.7 - 1.1 20 11.9 - - - - - 1015.8 - -
24/12:30pm 25.2 - 1.3 21 11.6 - - - - - 1016.4 1013.5 -
24/12:00pm 24.6 - 0.8 21 11.4 - - - - - 1016.9 1014.0 -
24/11:30am 24.1 - 1.1 22 11.0 - - - - - 1017.6 1014.8 -
24/11:00am 23.2 - 0.9 23 10.6 - - - - - 1017.9 - -
24/10:30am 22.2 - 1.8 26 9.8 - - - - - 1018.3 1015.4 -
24/10:00am 22.2 - 1.3 25 9.9 - - - - - 1018.6 - -
24/09:30am 20.8 - 0.1 25 9.5 - - - - - 1018.5 1015.6 -
24/09:00am 20.4 - 2.3 30 8.6 - - - - - 1018.4 1015.5 0.0
24/08:30am 17.9 - 4.1 40 6.7 - - - - - 1018.0 1015.2 -
24/08:00am 16.3 - 6.2 51 5.1 - - - - - 1017.9 - -
24/07:30am 13.8 - 6.7 62 3.5 - - - - - 1017.8 1015.0 -
24/07:00am 13.3 - 5.9 61 3.6 - - - - - 1017.4 - -
24/06:30am 13.7 - 6.3 61 3.6 - - - - - 1017.1 1014.2 -
24/06:00am 13.5 - 7.7 68 2.9 - - - - - 1017.0 1014.1 -
24/05:30am 13.7 - 7.2 65 3.3 - - - - - 1016.7 1013.8 -
24/05:00am 13.8 - 8.8 72 2.6 - - - - - 1016.7 - -
24/04:30am 14.0 - 9.2 73 2.5 - - - - - 1016.7 1013.8 -
24/04:00am 13.9 - 9.9 77 2.1 - - - - - 1016.5 - -
24/03:30am 14.3 - 9.1 71 2.7 - - - - - 1016.4 1013.5 -
24/03:00am 14.5 - 8.7 68 3.0 - - - - - 1016.5 1013.6 0.0
24/02:30am 15.0 - 8.3 64 3.5 - - - - - 1016.4 1013.5 -
24/02:00am 14.9 - 8.6 66 3.3 - - - - - 1016.5 - -
24/01:30am 14.7 - 9.1 69 2.9 - - - - - 1016.7 1013.8 -
24/01:00am 14.5 - 8.0 65 3.3 - - - - - 1016.9 - -
24/12:30am 14.0 - 9.8 76 2.2 - - - - - 1016.9 1014.0 -
24/12:00am 14.3 - 9.1 71 2.7 - - - - - 1016.7 1013.8 -
 
Date/Time
CST
Temp
°C
App
Temp
°C
Dew
Point
Rel
Hum
%
Delta-T
°C
Wind Press
QNH
hPa
Press
MSL
hPa
Rain
since 9 am
mm
Dir
 
Spd
km/h
Gust
km/h
Spd
kts
Gust
kts
23/11:30pm 14.6 - 8.8 68 3.0 - - - - - 1017.0 1014.1 -
23/11:00pm 15.4 - 7.9 61 3.9 - - - - - 1017.4 - -
23/10:30pm 14.6 - 9.2 70 2.8 - - - - - 1017.6 1014.8 -
23/10:00pm 15.4 - 7.7 60 4.0 - - - - - 1017.8 - -
23/09:30pm 16.1 - 9.1 63 3.7 - - - - - 1017.6 1014.8 -
23/09:00pm 15.7 - 8.9 64 3.6 - - - - - 1017.8 1015.0 0.0
23/08:30pm 15.6 - 9.1 65 3.4 - - - - - 1017.7 1014.9 -
23/08:00pm 16.2 - 7.4 56 4.5 - - - - - 1017.7 - -
23/07:30pm 16.8 - 6.6 51 5.2 - - - - - 1017.1 1014.2 -
23/07:00pm 17.1 - 6.9 51 5.2 - - - - - 1017.1 - -
23/06:30pm 18.4 - 4.2 39 6.9 - - - - - 1016.8 1013.9 -
23/06:00pm 19.8 - 3.5 34 7.9 - - - - - 1016.5 1013.6 -
23/05:30pm 20.8 - 3.1 31 8.6 - - - - - 1016.3 1013.4 -
23/05:00pm 21.4 - 3.1 30 8.9 - - - - - 1015.9 - -
23/04:30pm 21.3 - 3.5 31 8.8 - - - - - 1015.9 1013.1 -
23/04:00pm 20.5 - 2.8 31 8.6 - - - - - 1015.7 - -
23/03:30pm 20.5 - 3.7 33 8.3 - - - - - 1016.1 1013.3 -
23/03:00pm 20.0 - 3.7 34 8.0 - - - - - 1016.1 1013.3 0.0
23/02:30pm 19.8 - 2.6 32 8.2 - - - - - 1016.4 1013.5 -
23/02:00pm 20.0 - 3.7 34 8.0 - - - - - 1016.6 - -
23/01:30pm 19.6 - 3.3 34 7.9 - - - - - 1017.0 1014.1 -
23/01:00pm 19.5 - 3.6 35 7.7 - - - - - 1017.4 - -
23/12:30pm 19.4 - 3.2 34 7.8 - - - - - 1017.7 1014.9 -
23/12:00pm 19.4 - 2.7 33 8.0 - - - - - 1018.7 1015.8 -
23/11:30am 19.1 - 2.9 34 7.7 - - - - - 1018.7 1015.8 -
23/11:00am 18.8 - 2.6 34 7.7 - - - - - 1019.0 - -
23/10:30am 18.8 - 3.0 35 7.5 - - - - - 1019.5 1016.7 -
23/10:00am 18.2 - 2.9 36 7.3 - - - - - 1019.6 - -
23/09:30am 17.5 - 3.0 38 6.9 - - - - - 1019.6 1016.8 -
23/09:00am 17.0 - 3.0 39 6.6 - - - - - 1019.5 1016.7 0.0
23/08:30am 16.4 - 3.8 43 6.0 - - - - - 1019.3 1016.5 -
23/08:00am 15.2 - 4.6 49 5.1 - - - - - 1018.9 - -
23/07:30am 13.1 - 6.2 63 3.4 - - - - - 1018.8 1015.9 -
23/07:00am 12.6 - 6.2 65 3.1 - - - - - 1018.4 - -
23/06:30am 12.1 - 6.6 69 2.7 - - - - - 1018.3 1015.4 -
23/06:00am 12.5 - 5.7 63 3.3 - - - - - 1017.6 1014.8 -
23/05:30am 12.1 - 5.7 65 3.1 - - - - - 1017.2 1014.3 -
23/05:00am 11.4 - 6.1 70 2.6 - - - - - 1017.0 - -
23/04:30am 11.7 - 6.0 68 2.8 - - - - - 1017.4 1014.6 -
23/04:00am 11.9 - 6.0 67 2.9 - - - - - 1017.5 - -
23/03:30am 11.5 - 5.8 68 2.7 - - - - - 1017.5 1014.7 -
23/03:00am 12.0 - 5.4 64 3.2 - - - - - 1017.9 1015.1 0.0
23/02:30am 12.1 - 5.5 64 3.2 - - - - - 1018.4 1015.5 -
23/02:00am 11.6 - 5.5 66 2.9 - - - - - 1018.4 - -
23/01:30am 11.8 - 5.0 63 3.2 - - - - - 1018.8 1015.9 -
23/01:00am 13.4 - 4.8 56 4.1 - - - - - 1019.3 - -
23/12:30am 13.8 - 4.7 54 4.3 - - - - - 1019.4 1016.6 -
23/12:00am 14.5 - 4.8 52 4.7 - - - - - 1019.7 1016.9 -
 
Date/Time
CST
Temp
°C
App
Temp
°C
Dew
Point
Rel
Hum
%
Delta-T
°C
Wind Press
QNH
hPa
Press
MSL
hPa
Rain
since 9 am
mm
Dir
 
Spd
km/h
Gust
km/h
Spd
kts
Gust
kts
22/11:30pm 13.9 - 4.5 53 4.5 - - - - - 1019.7 1016.9 -
22/11:00pm 15.2 - 4.9 50 5.0 - - - - - 1020.2 - -
22/10:30pm 15.6 - 4.3 47 5.4 - - - - - 1020.5 1017.7 -
22/10:00pm 16.5 - 3.9 43 6.0 - - - - - 1020.4 - -
22/09:30pm 17.5 - 3.0 38 6.9 - - - - - 1020.2 1017.3 -
22/09:00pm 18.3 - 3.0 36 7.3 - - - - - 1020.1 1017.2 0.0
22/08:30pm 18.7 - 3.3 36 7.4 - - - - - 1019.6 1016.8 -
22/08:00pm 18.5 - 3.2 36 7.3 - - - - - 1019.3 - -
22/07:30pm 19.6 - 2.0 31 8.3 - - - - - 1019.0 1016.2 -
22/07:00pm 20.9 - 1.2 27 9.3 - - - - - 1018.8 - -
22/06:30pm 21.5 - 0.1 24 9.9 - - - - - 1018.4 1015.5 -
22/06:00pm 22.2 - -0.5 22 10.4 - - - - - 1018.0 1015.2 -
22/05:30pm 22.8 - 0.0 22 10.6 - - - - - 1017.6 1014.8 -
22/05:00pm 23.4 - -0.8 20 11.2 - - - - - 1017.3 - -
22/04:30pm 23.7 - 0.1 21 11.1 - - - - - 1017.2 1014.3 -

Other Formats:

Comma delimited format used in spreadsheet applications
http://www.bom.gov.au/fwo/IDD60801/IDD60801.94328.axf

JavaScript Object Notation format (JSON) in row-major order
http://www.bom.gov.au/fwo/IDD60801/IDD60801.94328.json